San Justo, Argentina
Current Conditions -  °F | °C
As of 9:00 PM on Saturday 20 Dec 2014 (Local Time) from SAAR Reporting Station
Overcast Overcast  
Wind Chill: 72°   Ceiling: 10000
Heat Index: 72°   Visibility: 6mi
Dew Point: 64°   Wind: 7mph
Humidity: 78%   Direction: 180°S
Pressure: 29.59"   Gusts: NA
Location:  30.79°S, 60.58°W
Report Text: SAAR 210000Z 18006KT 9999 FEW045 OVC10022/18 Q1002
Loading
Personal Weather Stations






























Interactive Weather Map New forecast layout! Learn more

10-Day Weather Forecast

Advertisements
Track Severe Weather on mobile